Pagrindinis puslapis
METAR-TAF:

METAR-TAF

Oro uostai :

Nakhon Phanom, Tailandas

platuma: 17-23-02N, ilguma: 104-38-35E, Aukštis: 179 m

Dabartinis oras

Ataskaita buvo paskelbta 54 minutes, ne 13:00 UTC
Vėjas 5 kt iš Rytų/Pietryčių
Temperatūra 24°C
Drėgmė 78%
Slėgis 1014 hPa
Matomumas 10 km arba daugiau
nėra debesų žemiau 1500 m ir nėra kamuolinių lietaus debesų

METAR: VTUW 151300Z 12005KT CAVOK 24/20 Q1014 NOSIG

Laikas: 20:54 (13:54 UTC)

Prognozė

Ataskaita buvo paskelbta 2 valandos ir 54 minutes, ne 11:00 UTC
Prognozė galioja nuo 15 metu 12 UTC su 16 metu 12 UTC
Vėjas 8 kt iš Rytų
Matomumas: 9000 m
Išsisklaidę debesys ne aukštis 4000 ft
Išsisklaidę debesys ne aukštis 8000 ft

TAF: VTUW 151100Z 1512/1612 10008KT 9000 SCT040 SCT080

Orai ataskaitas ir orų prognozės (METAR, TAF).

turimą stotys yra geltonos ir raudonos taškus žemėlapyje.

Perkelti pele per norėdami pamatyti stoties vardą.

Tada spustelėkite, norėdami matyti oro stebėjimo ir prognozės.

Norėdami pakeisti žemėlapį: spustelėkite ant žalios mygtukų su juodo kryžiaus žemyn,; žalią mygtuką su brūkšneliu, jei norite nutolinti; arba žalių rodyklių gretimoms žemėlapius.


METAR-TAF: